Time;durP1;ratioP1;P1;durP2;ratioP2;P2;SDS_P1;SDS_P2;PMS_P1;PMS_P2;Temp;Humidity;BMP_temperature;BMP_pressure;BME280_temperature;BME280_humidity;BME280_pressure;Samples;Min_cycle;Max_cycle;Signal;HPM_P1;HPM_P2
2022/08/18 00:04:19;;;;;;;249.07;117.90;;;;;;;15.96;100.00;101050.78;10444347;28;20072;-79
2022/08/18 00:09:20;;;;;;;239.98;117.10;;;;;;;15.97;100.00;101052.56;10442989;28;20056;-78
2022/08/18 00:14:20;;;;;;;280.85;124.07;;;;;;;16.00;100.00;101050.91;10444182;28;20403;-78
2022/08/18 00:19:21;;;;;;;245.30;119.28;;;;;;;16.03;100.00;101058.00;10427587;28;20052;-78
2022/08/18 00:24:22;;;;;;;266.80;124.78;;;;;;;16.08;100.00;101053.75;10425792;28;20036;-78
2022/08/18 00:29:23;;;;;;;267.60;126.60;;;;;;;16.11;100.00;101055.59;10441796;28;20124;-78
2022/08/18 00:34:23;;;;;;;273.38;125.18;;;;;;;16.13;100.00;101062.69;10425349;28;20036;-78
2022/08/18 00:39:24;;;;;;;270.15;122.63;;;;;;;16.17;100.00;101066.34;10442523;28;20043;-78
2022/08/18 00:44:24;;;;;;;248.50;121.57;;;;;;;16.21;100.00;101069.94;10443275;28;20554;-77
2022/08/18 00:49:25;;;;;;;263.55;122.65;;;;;;;16.22;100.00;101062.06;10441484;28;20033;-78
2022/08/18 00:54:28;;;;;;;231.55;114.15;;;;;;;16.15;100.00;101063.63;10442362;28;20131;-78
2022/08/18 00:59:49;;;;;;;223.80;114.30;;;;;;;16.18;100.00;101060.22;10425227;28;20044;-79
2022/08/18 01:04:54;;;;;;;232.83;110.70;;;;;;;16.13;100.00;101062.69;10441830;28;20037;-78
2022/08/18 01:09:55;;;;;;;249.55;108.72;;;;;;;15.96;100.00;101048.13;10425396;28;20045;-78
2022/08/18 01:14:55;;;;;;;252.18;114.30;;;;;;;15.90;100.00;101053.25;10424562;28;20843;-78
2022/08/18 01:30:56;;;;;;;238.23;112.95;;;;;;;15.78;100.00;101062.56;10427644;28;20037;-78
2022/08/18 01:36:16;;;;;;;244.20;108.18;;;;;;;15.76;100.00;101068.66;10413530;28;20033;-78
2022/08/18 01:41:19;;;;;;;234.75;115.47;;;;;;;15.85;100.00;101075.06;10448209;28;20135;-78
2022/08/18 01:46:20;;;;;;;241.38;112.95;;;;;;;15.93;100.00;101066.53;10391682;28;20096;-78
2022/08/18 01:51:20;;;;;;;249.57;116.70;;;;;;;15.99;100.00;101072.88;10408688;28;20103;-78
2022/08/18 01:56:21;;;;;;;218.68;106.80;;;;;;;16.07;100.00;101073.09;10406803;28;20073;-77
2022/08/18 02:01:22;;;;;;;245.75;111.55;;;;;;;16.13;100.00;101080.31;10407542;28;20132;-79
2022/08/18 02:06:22;;;;;;;234.55;108.35;;;;;;;16.14;100.00;101082.97;10407187;28;20079;-78
2022/08/18 02:11:23;;;;;;;259.63;113.70;;;;;;;16.18;100.00;101081.31;10406927;28;20068;-78
2022/08/18 02:16:23;;;;;;;224.20;106.60;;;;;;;16.23;100.00;101078.81;10406907;28;20033;-78
2022/08/18 02:21:24;;;;;;;234.32;111.40;;;;;;;16.28;100.00;101077.19;10406003;28;20038;-78
2022/08/18 02:26:24;;;;;;;233.10;106.28;;;;;;;16.27;100.00;101076.31;10406714;28;20121;-78
2022/08/18 02:31:25;;;;;;;221.70;103.97;;;;;;;16.27;100.00;101086.88;10405579;28;20529;-78
2022/08/18 02:36:26;;;;;;;202.00;98.70;;;;;;;16.33;100.00;101088.78;10405794;28;20029;-78
2022/08/18 02:41:27;;;;;;;224.20;101.13;;;;;;;16.34;100.00;101084.41;10405686;28;20473;-78
2022/08/18 02:46:27;;;;;;;221.90;102.22;;;;;;;16.35;100.00;101083.53;10405445;28;20037;-78
2022/08/18 02:51:28;;;;;;;215.38;98.95;;;;;;;16.40;100.00;101089.84;10406206;28;20041;-79
2022/08/18 02:56:29;;;;;;;213.77;101.60;;;;;;;16.41;100.00;101083.72;10405471;28;20041;-77
2022/08/18 03:01:32;;;;;;;202.70;96.93;;;;;;;16.41;100.00;101078.44;10426687;28;20552;-78
2022/08/18 03:06:32;;;;;;;;;;;;;;;16.46;100.00;101074.16;10429656;28;20071;-78
2022/08/18 03:11:33;;;;;;;200.27;96.82;;;;;;;16.49;100.00;101071.59;10446880;28;19959;-78
2022/08/18 03:16:35;;;;;;;190.35;93.15;;;;;;;16.43;100.00;101058.22;10445191;28;20065;-80
2022/08/18 03:21:36;;;;;;;199.10;96.20;;;;;;;16.42;100.00;101052.03;10429262;28;20045;-78
2022/08/18 03:26:41;;;;;;;194.68;92.65;;;;;;;16.42;100.00;101061.72;10428457;28;20546;-79
2022/08/18 03:31:42;;;;;;;205.50;92.65;;;;;;;16.40;100.00;101059.03;10428653;28;20059;-78
2022/08/18 03:36:44;;;;;;;207.68;103.55;;;;;;;16.43;100.00;101053.81;10444459;28;20045;-79
2022/08/18 03:41:45;;;;;;;193.73;92.45;;;;;;;16.43;100.00;101050.31;10444036;28;20435;-78
2022/08/18 03:46:46;;;;;;;180.73;88.85;;;;;;;16.56;100.00;101047.13;10444005;28;20090;-78
2022/08/18 03:51:47;;;;;;;183.48;92.75;;;;;;;16.53;100.00;101056.72;10427546;28;20033;-78
2022/08/18 03:56:48;;;;;;;196.53;92.63;;;;;;;16.48;100.00;101051.31;10427674;28;20044;-78
2022/08/18 04:01:50;;;;;;;174.60;89.10;;;;;;;16.47;100.00;101044.25;10442204;28;20366;-79
2022/08/18 04:07:03;;;;;;;182.60;95.00;;;;;;;16.48;100.00;101039.84;10426995;28;20041;-78
2022/08/18 04:12:11;;;;;;;197.50;97.30;;;;;;;16.46;100.00;101037.19;10427015;28;20612;-77
2022/08/18 04:17:11;;;;;;;204.48;95.13;;;;;;;16.42;100.00;101036.19;10442297;28;20116;-77
2022/08/18 04:22:12;;;;;;;178.45;85.95;;;;;;;16.36;100.00;101043.06;10426390;28;20041;-77
2022/08/18 04:27:12;;;;;;;183.07;91.85;;;;;;;16.27;100.00;101054.25;10443705;28;20045;-78
2022/08/18 04:32:13;;;;;;;185.73;92.20;;;;;;;16.22;100.00;101054.16;10442373;28;20500;-77
2022/08/18 04:37:14;;;;;;;172.77;89.18;;;;;;;16.13;100.00;101051.25;10425532;28;20136;-78
2022/08/18 04:42:15;;;;;;;173.32;85.65;;;;;;;15.97;100.00;101056.13;10425178;28;20045;-78
2022/08/18 04:47:15;;;;;;;156.73;74.57;;;;;;;15.89;100.00;101068.19;10442111;28;20488;-78
2022/08/18 04:57:35;;;;;;;181.63;89.30;;;;;;;16.04;100.00;101069.47;10441781;28;20045;-78
2022/08/18 05:02:36;;;;;;;175.57;89.80;;;;;;;16.10;100.00;101072.31;10440817;28;20505;-79
2022/08/18 05:07:41;;;;;;;189.68;93.97;;;;;;;16.19;100.00;101076.94;10441689;28;20051;-78
2022/08/18 05:12:42;;;;;;;182.50;89.55;;;;;;;16.28;100.00;101086.03;10440994;28;20523;-78
2022/08/18 05:17:43;;;;;;;215.23;100.97;;;;;;;16.35;100.00;101088.81;10442762;28;20041;-77
2022/08/18 05:22:44;;;;;;;191.87;95.20;;;;;;;16.42;100.00;101098.72;10440642;28;20033;-78
2022/08/18 05:27:44;;;;;;;181.63;90.10;;;;;;;16.50;100.00;101101.53;10424980;28;20112;-78
2022/08/18 05:32:46;;;;;;;172.98;90.28;;;;;;;16.58;100.00;101108.84;10440731;28;20126;-78
2022/08/18 05:38:01;;;;;;;159.00;87.73;;;;;;;16.68;100.00;101117.00;10440395;28;20091;-78
2022/08/18 05:43:02;;;;;;;148.75;80.43;;;;;;;16.75;100.00;101118.97;10442381;28;20041;-77
2022/08/18 05:48:02;;;;;;;146.38;74.43;;;;;;;16.83;100.00;101108.56;10423710;28;20087;-78
2022/08/18 05:53:03;;;;;;;136.98;75.82;;;;;;;16.79;100.00;101118.19;10440244;28;20381;-78
2022/08/18 05:58:07;;;;;;;130.23;70.80;;;;;;;16.83;100.00;101121.78;10440148;28;20484;-77
2022/08/18 06:03:15;;;;;;;128.02;72.30;;;;;;;16.89;100.00;101127.22;10440249;28;20114;-77
2022/08/18 06:08:15;;;;;;;117.70;73.00;;;;;;;17.01;100.00;101116.13;10440063;28;20432;-78
2022/08/18 06:13:18;;;;;;;100.50;62.05;;;;;;;17.10;100.00;101121.66;10422987;28;20033;-77
2022/08/18 06:18:59;;;;;;;107.60;63.17;;;;;;;17.19;100.00;101131.53;10440184;28;20098;-77
2022/08/18 06:24:02;;;;;;;87.57;57.50;;;;;;;17.31;100.00;101126.53;10407079;28;20067;-77
2022/08/18 06:29:15;;;;;;;86.30;55.75;;;;;;;17.37;100.00;101132.84;10406976;28;20045;-77
2022/08/18 06:34:32;;;;;;;68.95;46.95;;;;;;;17.47;100.00;101142.78;10407398;28;20045;-77
2022/08/18 06:39:59;;;;;;;69.05;52.92;;;;;;;17.75;100.00;101146.06;10444280;28;20044;-77
2022/08/18 06:45:11;;;;;;;62.67;43.47;;;;;;;18.11;100.00;101152.19;10445004;28;20040;-77
2022/08/18 06:50:29;;;;;;;60.03;41.40;;;;;;;18.41;100.00;101157.19;10430014;28;20132;-77
2022/08/18 06:55:43;;;;;;;55.42;41.22;;;;;;;18.80;100.00;101155.31;10447685;28;20044;-77
2022/08/18 07:00:52;;;;;;;46.58;34.75;;;;;;;19.25;100.00;101158.75;10446172;28;20128;-78
2022/08/18 07:05:56;;;;;;;41.30;32.00;;;;;;;19.86;95.13;101155.25;10428651;28;20055;-78
2022/08/18 07:11:11;;;;;;;39.38;33.17;;;;;;;20.42;90.68;101149.78;10446964;28;20041;-78
2022/08/18 07:16:33;;;;;;;26.08;23.23;;;;;;;21.25;83.59;101157.69;10445361;28;20091;-78
2022/08/18 07:21:36;;;;;;;29.02;24.77;;;;;;;21.14;80.39;101160.28;10445495;28;20445;-78
2022/08/18 07:27:16;;;;;;;29.67;26.45;;;;;;;20.56;83.38;101157.88;10427366;28;20044;-78
2022/08/18 07:32:17;;;;;;;29.15;24.98;;;;;;;21.15;81.97;101151.41;10423852;28;20106;-79
2022/08/18 07:37:22;;;;;;;15.35;12.77;;;;;;;21.77;75.56;101156.31;10426827;28;20484;-78
2022/08/18 07:42:46;;;;;;;12.93;10.55;;;;;;;22.22;74.73;101157.41;10443935;28;20044;-78
2022/08/18 07:47:56;;;;;;;10.18;8.73;;;;;;;22.16;68.98;101149.41;10443716;28;20443;-78
2022/08/18 07:53:16;;;;;;;14.10;10.93;;;;;;;22.25;69.30;101141.44;10478024;28;20041;-79
2022/08/18 07:58:28;;;;;;;16.00;13.20;;;;;;;22.02;72.03;101144.03;10443399;28;20045;-78
2022/08/18 08:03:45;;;;;;;15.20;12.93;;;;;;;22.72;71.31;101149.59;10444657;28;20115;-76
2022/08/18 08:08:58;;;;;;;16.80;12.77;;;;;;;25.54;61.63;101145.00;10443439;28;20040;-77
2022/08/18 08:14:11;;;;;;;16.98;15.25;;;;;;;28.40;50.29;101138.66;10442748;28;20112;-77
2022/08/18 08:19:17;;;;;;;16.92;14.55;;;;;;;29.33;48.16;101146.31;10444719;28;20048;-78
2022/08/18 08:24:23;;;;;;;20.15;18.10;;;;;;;26.64;54.79;101156.16;10444602;28;20045;-78
2022/08/18 08:29:24;;;;;;;21.42;18.85;;;;;;;24.11;61.46;101170.00;10441980;28;20033;-78
2022/08/18 08:34:41;;;;;;;27.43;22.13;;;;;;;21.98;68.90;101172.41;10444233;28;20043;-78
2022/08/18 08:39:46;;;;;;;24.20;20.63;;;;;;;21.05;75.37;101178.81;10402071;28;20432;-78
2022/08/18 08:44:46;;;;;;;27.08;23.25;;;;;;;21.08;77.28;101177.06;10440114;28;20040;-78
2022/08/18 08:49:52;;;;;;;22.30;19.48;;;;;;;22.03;73.91;101182.22;10443313;28;20029;-78
2022/08/18 08:54:55;;;;;;;24.65;21.05;;;;;;;22.54;70.12;101178.00;10425498;28;20029;-78
2022/08/18 08:59:55;;;;;;;34.25;20.00;;;;;;;23.57;67.59;101178.13;10425377;28;20043;-78
2022/08/18 09:04:56;;;;;;;19.03;15.87;;;;;;;24.42;63.83;101176.97;10442656;28;20119;-78
2022/08/18 09:10:15;;;;;;;15.70;13.60;;;;;;;26.55;57.86;101177.78;10442418;28;20052;-78
2022/08/18 09:15:34;;;;;;;14.45;12.98;;;;;;;26.23;54.83;101179.97;10442190;28;20041;-78
2022/08/18 09:20:55;;;;;;;16.42;13.25;;;;;;;25.62;55.84;101180.63;10441198;28;20068;-77
2022/08/18 09:25:59;;;;;;;15.20;13.35;;;;;;;25.15;58.25;101168.53;10442170;28;20037;-79
2022/08/18 09:31:05;;;;;;;15.10;12.10;;;;;;;25.07;55.94;101163.22;10424487;28;20040;-79
2022/08/18 09:36:13;;;;;;;16.45;14.63;;;;;;;24.63;59.58;101163.50;10442207;28;20446;-78
2022/08/18 09:41:31;;;;;;;16.67;12.68;;;;;;;24.75;59.34;101172.38;10441008;28;20041;-78
2022/08/18 09:46:46;;;;;;;15.05;13.25;;;;;;;24.66;60.83;101175.06;10424559;28;20029;-78
2022/08/18 09:51:47;;;;;;;25.75;15.63;;;;;;;24.67;59.85;101174.19;10401225;28;20493;-78
2022/08/18 09:56:50;;;;;;;18.90;15.50;;;;;;;24.25;61.59;101169.94;10399240;28;20041;-78
2022/08/18 10:01:51;;;;;;;15.82;14.15;;;;;;;23.93;63.76;101162.88;10445824;28;20043;-78
2022/08/18 10:06:52;;;;;;;16.43;13.70;;;;;;;24.20;63.62;101163.72;10447994;28;20378;-78
2022/08/18 10:12:10;;;;;;;17.07;13.93;;;;;;;24.85;61.83;101163.38;10431520;28;20124;-78
2022/08/18 10:17:15;;;;;;;15.38;12.50;;;;;;;25.29;60.46;101171.06;10449664;28;20033;-78
2022/08/18 10:22:37;;;;;;;18.25;13.57;;;;;;;25.95;57.46;101153.44;10430517;28;20060;-78
2022/08/18 10:27:43;;;;;;;18.10;15.00;;;;;;;25.38;57.46;101162.94;10465148;28;20481;-81
2022/08/18 10:32:44;;;;;;;16.27;14.57;;;;;;;25.35;59.30;101162.97;10448625;28;20040;-78
2022/08/18 10:37:47;;;;;;;14.75;13.02;;;;;;;25.49;58.94;101165.59;10463803;28;20110;-80
2022/08/18 10:42:56;;;;;;;16.63;14.65;;;;;;;25.02;57.61;101159.69;10462797;28;20373;-79
2022/08/18 10:48:03;;;;;;;16.60;14.45;;;;;;;24.30;61.97;101172.59;10464435;28;20041;-79
2022/08/18 10:53:03;;;;;;;17.13;14.60;;;;;;;23.64;63.66;101158.50;10447621;28;20046;-79
2022/08/18 10:58:24;;;;;;;13.57;12.03;;;;;;;26.39;57.84;101145.78;10447249;28;20033;-79
2022/08/18 11:03:38;;;;;;;10.23;9.13;;;;;;;30.32;41.60;101135.47;10447359;28;20123;-78
2022/08/18 11:08:44;;;;;;;14.05;9.48;;;;;;;31.02;41.39;101121.56;10447207;28;20060;-79
2022/08/18 11:14:16;;;;;;;13.48;12.05;;;;;;;31.59;39.20;101114.16;10462292;28;20033;-79
2022/08/18 11:19:17;;;;;;;14.85;11.48;;;;;;;32.51;37.71;101108.03;10443790;28;20065;-79
2022/08/18 11:24:28;;;;;;;8.75;6.65;;;;;;;33.22;36.14;101104.16;10427900;28;20035;-79
2022/08/18 11:29:39;;;;;;;10.55;9.55;;;;;;;33.33;36.70;101106.41;10444855;28;20053;-79
2022/08/18 11:35:03;;;;;;;10.48;9.48;;;;;;;31.11;39.35;101102.34;10427764;28;20607;-79
2022/08/18 11:40:33;;;;;;;12.40;10.85;;;;;;;28.22;47.30;101094.22;10443729;28;20506;-78
2022/08/18 11:45:43;;;;;;;10.00;9.00;;;;;;;28.30;48.86;101088.66;10403156;28;20037;-78
2022/08/18 11:51:00;;;;;;;6.90;6.07;;;;;;;28.50;45.07;101082.81;10441257;28;20040;-78
2022/08/18 11:56:13;;;;;;;9.90;9.00;;;;;;;26.70;51.71;101096.13;10443931;28;20444;-79
2022/08/18 12:01:37;;;;;;;10.25;9.25;;;;;;;26.19;52.36;101097.75;10444705;28;20484;-79
2022/08/18 12:06:53;;;;;;;8.45;7.60;;;;;;;26.63;52.91;101100.72;10443142;28;20041;-79
2022/08/18 12:12:03;;;;;;;7.75;6.70;;;;;;;27.20;49.46;101094.41;10443276;28;20531;-79
2022/08/18 12:17:06;;;;;;;10.77;7.32;;;;;;;27.24;50.32;101092.56;10444031;28;20461;-79
2022/08/18 12:22:21;;;;;;;12.57;8.20;;;;;;;26.40;50.99;101093.91;10441962;28;20033;-80
2022/08/18 12:27:23;;;;;;;8.40;6.97;;;;;;;25.95;51.63;101102.50;10442562;28;20033;-82
2022/08/18 12:32:24;;;;;;;10.05;6.93;;;;;;;24.87;57.39;101112.53;10443622;28;20503;-80
2022/08/18 12:37:26;;;;;;;9.95;8.00;;;;;;;24.00;61.25;101116.56;10409353;28;20041;-80
2022/08/18 12:42:26;;;;;;;10.35;8.00;;;;;;;23.80;61.90;101130.00;10441682;28;20037;-79
2022/08/18 12:47:28;;;;;;;11.30;9.60;;;;;;;23.94;62.37;101143.28;10425168;28;20061;-80
2022/08/18 12:52:28;;;;;;;12.55;9.32;;;;;;;24.02;59.61;101149.53;10442002;28;20068;-80
2022/08/18 12:57:29;;;;;;;10.27;8.30;;;;;;;24.07;59.45;101154.88;10441233;28;20053;-79
2022/08/18 13:02:29;;;;;;;11.47;7.87;;;;;;;24.39;60.37;101155.59;10442147;28;20589;-79
2022/08/18 13:07:30;;;;;;;10.87;8.47;;;;;;;24.31;59.26;101158.34;10474786;28;20040;-80
2022/08/18 13:12:30;;;;;;;9.23;8.17;;;;;;;24.51;60.25;101155.53;10441699;28;20392;-79
2022/08/18 13:17:31;;;;;;;10.77;9.67;;;;;;;24.88;58.39;101141.06;10440709;28;20124;-80
2022/08/18 13:22:32;;;;;;;11.07;9.43;;;;;;;25.30;56.72;101117.50;10442777;28;20064;-80
2022/08/18 13:27:33;;;;;;;11.10;9.53;;;;;;;25.81;55.06;101105.38;10442476;28;20107;-80
2022/08/18 13:32:34;;;;;;;14.05;11.07;;;;;;;26.05;54.48;101109.53;10440902;28;20060;-79
2022/08/18 13:37:34;;;;;;;11.63;10.43;;;;;;;26.98;51.66;101112.72;10448189;28;20044;-78
2022/08/18 13:42:46;;;;;;;11.77;10.17;;;;;;;27.14;51.96;101102.56;10448961;28;20035;-79
2022/08/18 13:47:47;;;;;;;12.75;9.43;;;;;;;28.63;47.10;101083.38;10408700;28;20037;-79
2022/08/18 13:52:49;;;;;;;;;;;;;;;29.59;45.11;101097.09;10391274;28;20489;-79
2022/08/18 13:57:49;;;;;;;11.60;8.90;;;;;;;28.75;48.76;101081.31;10408989;28;19921;-79
2022/08/18 14:02:52;;;;;;;12.27;9.83;;;;;;;29.99;44.12;101059.13;10391066;28;20049;-79
2022/08/18 14:07:53;;;;;;;10.55;8.00;;;;;;;30.35;42.06;101058.91;10406527;28;20048;-79
2022/08/18 14:12:55;;;;;;;8.05;7.32;;;;;;;31.46;40.75;101059.66;10408474;28;20036;-79
2022/08/18 14:17:56;;;;;;;8.13;7.32;;;;;;;31.74;39.49;101057.75;10405935;28;20120;-79
2022/08/18 14:28:18;;;;;;;9.70;6.95;;;;;;;31.23;39.50;101057.78;10433224;28;20120;-79
2022/08/18 14:33:19;;;;;;;;;;;;;;;30.93;39.70;101065.16;10447631;28;20041;-79
2022/08/18 14:38:20;;;;;;;11.20;8.37;;;;;;;31.06;39.43;101061.06;10446899;28;19917;-77
2022/08/18 14:43:21;;;;;;;10.25;6.88;;;;;;;31.20;38.69;101055.19;10446205;28;20420;-77
2022/08/18 14:48:21;;;;;;;11.25;7.72;;;;;;;30.88;40.01;101052.69;10429432;28;20033;-77
2022/08/18 14:53:24;;;;;;;10.98;9.50;;;;;;;30.91;38.68;101047.16;10462719;28;20434;-77
2022/08/18 14:58:27;;;;;;;15.85;9.10;;;;;;;30.18;41.17;101046.81;10430272;28;20033;-78
2022/08/18 15:03:29;;;;;;;7.63;6.82;;;;;;;30.58;39.65;101039.28;10478930;28;20057;-77
2022/08/18 15:08:29;;;;;;;8.43;7.25;;;;;;;30.59;40.76;101040.16;10479006;28;20048;-77
2022/08/18 15:13:31;;;;;;;10.07;8.95;;;;;;;30.54;38.73;101047.50;10479075;28;20083;-77
2022/08/18 15:18:31;;;;;;;8.20;7.22;;;;;;;30.28;39.96;101043.81;10428974;28;20116;-77
2022/08/18 15:28:51;;;;;;;10.65;9.65;;;;;;;28.86;43.72;101047.84;10445065;28;20037;-77
2022/08/18 15:33:51;;;;;;;11.95;10.07;;;;;;;29.02;42.85;101048.31;10462137;28;20037;-77
2022/08/18 15:38:52;;;;;;;10.30;9.20;;;;;;;28.56;45.19;101044.09;10444235;28;20120;-78
2022/08/18 15:43:53;;;;;;;9.43;8.33;;;;;;;28.03;47.26;101047.97;10444203;28;20112;-79
2022/08/18 15:48:54;;;;;;;14.83;8.17;;;;;;;26.93;49.23;101055.50;10445566;28;20342;-79
2022/08/18 15:53:54;;;;;;;12.18;8.95;;;;;;;25.84;55.28;101050.81;10427148;28;20037;-79
2022/08/18 15:58:55;;;;;;;10.33;9.10;;;;;;;24.90;57.05;101043.78;10444205;28;20037;-78
2022/08/18 16:03:55;;;;;;;10.53;7.67;;;;;;;24.51;57.36;101042.31;10443102;28;20059;-79
2022/08/18 16:08:56;;;;;;;11.47;7.83;;;;;;;24.79;56.94;101037.63;10445844;28;20084;-79
2022/08/18 16:13:59;;;;;;;10.63;9.53;;;;;;;25.39;52.11;101028.13;10444603;28;20473;-79
2022/08/18 16:19:00;;;;;;;15.02;10.93;;;;;;;25.44;53.05;101036.97;10444222;28;20094;-78
2022/08/18 16:24:01;;;;;;;10.55;8.48;;;;;;;25.19;53.96;101042.59;10442810;28;20044;-77
2022/08/18 16:29:02;;;;;;;12.60;10.13;;;;;;;24.77;56.29;101039.44;10476303;28;20495;-77
2022/08/18 16:34:02;;;;;;;14.40;10.10;;;;;;;24.52;56.98;101036.94;10440749;28;20366;-77
2022/08/18 16:39:03;;;;;;;7.97;6.97;;;;;;;24.29;58.29;101039.78;10443615;28;20639;-78
2022/08/18 16:44:04;;;;;;;8.63;7.73;;;;;;;24.42;58.34;101032.56;10442543;28;20448;-77
2022/08/18 16:49:06;;;;;;;7.73;6.60;;;;;;;24.56;60.51;101035.13;10441488;28;20033;-79
2022/08/18 16:54:07;;;;;;;9.30;7.20;;;;;;;24.76;56.78;101033.22;10441572;28;20040;-79
2022/08/18 17:04:28;;;;;;;9.07;8.15;;;;;;;24.69;56.63;101023.44;10442237;28;20485;-79
2022/08/18 17:09:28;;;;;;;8.93;7.63;;;;;;;24.46;59.14;101012.91;10423677;28;20493;-79
2022/08/18 17:14:29;;;;;;;11.93;7.60;;;;;;;24.27;59.85;101007.69;10442422;28;20116;-79
2022/08/18 17:19:32;;;;;;;8.20;7.40;;;;;;;24.03;57.98;101000.75;10457618;28;20044;-78
2022/08/18 17:24:32;;;;;;;8.10;6.65;;;;;;;23.88;60.09;101001.66;10441935;28;20504;-78
2022/08/18 17:29:47;;;;;;;9.63;7.90;;;;;;;23.57;61.16;100992.03;10441011;28;20051;-78
2022/08/18 17:34:50;;;;;;;7.97;7.07;;;;;;;23.35;59.93;101003.69;10440567;28;20040;-78
2022/08/18 17:39:53;;;;;;;6.85;6.15;;;;;;;23.15;59.88;100996.59;10440917;28;20473;-78
2022/08/18 17:44:59;;;;;;;7.57;6.88;;;;;;;22.99;60.81;101004.63;10406978;28;20037;-78
2022/08/18 17:55:27;;;;;;;7.30;6.57;;;;;;;22.49;62.82;101001.09;10440146;28;20041;-77
2022/08/18 18:00:30;;;;;;;7.28;6.10;;;;;;;22.22;65.49;101008.16;10440492;28;20049;-78
2022/08/18 18:05:40;;;;;;;10.18;6.97;;;;;;;21.87;68.01;101008.94;10424654;28;20033;-78
2022/08/18 18:10:43;;;;;;;7.15;6.30;;;;;;;21.54;70.41;101007.91;10439723;28;20493;-77
2022/08/18 18:15:47;;;;;;;6.05;5.35;;;;;;;21.21;71.45;101013.09;10423561;28;20140;-78
2022/08/18 18:21:05;;;;;;;8.23;7.43;;;;;;;20.91;72.65;101008.44;10441349;28;20033;-78
2022/08/18 18:26:43;;;;;;;12.95;7.03;;;;;;;20.64;75.13;101018.84;10447416;28;20044;-78
2022/08/18 18:32:03;;;;;;;10.73;7.68;;;;;;;20.35;77.48;101010.59;10426653;28;20029;-78
2022/08/18 18:37:05;;;;;;;8.45;7.55;;;;;;;20.08;79.60;101012.09;10447463;28;20036;-78
2022/08/18 18:42:16;;;;;;;9.35;8.18;;;;;;;19.81;80.23;101009.13;10446172;28;20366;-78
2022/08/18 18:47:54;;;;;;;9.00;8.07;;;;;;;19.60;80.24;101017.72;10445511;28;20029;-78
2022/08/18 18:53:07;;;;;;;10.90;8.45;;;;;;;19.43;85.00;101021.91;10416194;28;20047;-78
2022/08/18 18:58:32;;;;;;;9.05;8.15;;;;;;;19.21;85.67;101016.28;10446786;28;20033;-78
2022/08/18 19:03:44;;;;;;;9.43;8.20;;;;;;;18.99;86.59;101031.00;10444719;28;20094;-78
2022/08/18 19:09:15;;;;;;;10.20;8.77;;;;;;;18.80;86.82;101022.72;10445663;28;20426;-78
2022/08/18 19:14:19;;;;;;;11.32;9.63;;;;;;;18.62;87.60;101031.25;10445519;28;20045;-77
2022/08/18 19:19:40;;;;;;;9.63;8.63;;;;;;;18.44;88.39;101032.72;10445692;28;20112;-78
2022/08/18 19:24:55;;;;;;;13.65;10.23;;;;;;;18.30;89.75;101028.94;10446726;28;20118;-78
2022/08/18 19:29:59;;;;;;;10.25;9.25;;;;;;;18.18;91.50;101046.38;10427176;28;20044;-77
2022/08/18 19:35:00;;;;;;;11.50;10.25;;;;;;;18.07;92.47;101047.94;10428176;28;20037;-78
2022/08/18 19:40:37;;;;;;;11.68;10.50;;;;;;;17.98;92.51;101055.66;10447212;28;20048;-78
2022/08/18 19:45:45;;;;;;;11.63;10.43;;;;;;;17.85;93.46;101047.47;10427319;28;20451;-78
2022/08/18 19:50:53;;;;;;;17.90;11.00;;;;;;;17.74;93.93;101057.84;10402444;28;20041;-77
2022/08/18 19:56:12;;;;;;;10.57;9.55;;;;;;;17.62;95.36;101060.22;10441512;28;20487;-77
2022/08/18 20:01:34;;;;;;;14.43;11.18;;;;;;;17.55;95.47;101056.53;10443007;28;20088;-78
2022/08/18 20:06:55;;;;;;;12.02;10.82;;;;;;;17.43;96.35;101056.25;10443072;28;20404;-78
2022/08/18 20:12:25;;;;;;;12.50;11.20;;;;;;;17.32;96.50;101053.38;10427786;28;20131;-78
2022/08/18 20:17:26;;;;;;;13.65;11.98;;;;;;;17.23;97.24;101055.81;10437143;28;20077;-78
2022/08/18 20:22:45;;;;;;;17.48;12.77;;;;;;;17.10;97.17;101059.91;10426610;28;20040;-78
2022/08/18 20:27:50;;;;;;;14.00;12.60;;;;;;;16.98;98.58;101058.75;10442638;28;20166;-78
2022/08/18 20:33:15;;;;;;;14.60;13.02;;;;;;;16.89;99.21;101055.84;10443363;28;20528;-78
2022/08/18 20:38:33;;;;;;;17.58;14.75;;;;;;;16.82;100.00;101060.13;10443921;28;20088;-79
2022/08/18 20:43:34;;;;;;;17.95;15.23;;;;;;;16.75;100.00;101066.09;10442598;28;20385;-78
2022/08/18 20:49:04;;;;;;;19.48;14.82;;;;;;;16.67;100.00;101065.88;10425035;28;20036;-78
2022/08/18 20:54:16;;;;;;;17.48;14.38;;;;;;;16.62;100.00;101061.34;10428034;28;20366;-78
2022/08/18 20:59:22;;;;;;;16.70;13.67;;;;;;;16.55;100.00;101068.22;10424578;28;20048;-77
2022/08/18 21:04:46;;;;;;;16.58;14.88;;;;;;;16.46;100.00;101065.31;10384993;28;20037;-78
2022/08/18 21:09:53;;;;;;;18.20;15.63;;;;;;;16.39;100.00;101073.09;10471858;28;20072;-77
2022/08/18 21:14:55;;;;;;;17.70;15.90;;;;;;;16.34;100.00;101071.19;10425200;28;20129;-77
2022/08/18 21:20:00;;;;;;;19.80;16.80;;;;;;;16.28;100.00;101078.09;10443276;28;20037;-78
2022/08/18 21:25:00;;;;;;;18.10;16.20;;;;;;;16.17;100.00;101084.81;10442072;28;20040;-78
2022/08/18 21:30:14;;;;;;;21.85;17.33;;;;;;;16.13;100.00;101086.47;10424647;28;20043;-77
2022/08/18 21:35:32;;;;;;;21.42;19.13;;;;;;;16.04;100.00;101077.41;10441080;28;20366;-77
2022/08/18 21:40:42;;;;;;;27.90;21.67;;;;;;;15.94;100.00;101079.78;10441273;28;20044;-78
2022/08/18 21:45:46;;;;;;;25.85;21.48;;;;;;;15.83;100.00;101084.69;10440901;28;20044;-78
2022/08/18 21:50:51;;;;;;;24.98;21.85;;;;;;;15.85;100.00;101097.94;10407789;28;20030;-78
2022/08/18 21:55:53;;;;;;;21.77;19.35;;;;;;;15.77;100.00;101097.72;10443646;28;20396;-78
2022/08/18 22:01:12;;;;;;;27.67;23.48;;;;;;;15.74;100.00;101102.00;10450797;28;20052;-78
2022/08/18 22:06:15;;;;;;;30.20;23.88;;;;;;;15.69;100.00;101100.13;10449368;28;20052;-78
2022/08/18 22:16:52;;;;;;;37.67;29.50;;;;;;;15.54;100.00;101099.66;10448101;28;20033;-78
2022/08/18 22:24:17;;;;;;;33.75;27.58;;;;;;;15.50;100.00;101090.75;10448125;28;20045;-77
2022/08/18 22:27:21;;;;;;;35.33;29.13;;;;;;;15.47;100.00;101097.69;10433786;28;20040;-78
2022/08/18 22:32:22;;;;;;;36.30;30.05;;;;;;;15.39;100.00;101100.97;10430978;28;20044;-78
2022/08/18 22:37:24;;;;;;;39.88;33.85;;;;;;;15.39;100.00;101103.59;10447003;28;20120;-78
2022/08/18 22:42:27;;;;;;;35.17;29.85;;;;;;;15.37;100.00;101107.03;10430696;28;20479;-78
2022/08/18 22:47:28;;;;;;;42.20;31.10;;;;;;;15.33;100.00;101107.78;10447059;28;20037;-78
2022/08/18 22:52:33;;;;;;;35.08;28.15;;;;;;;15.26;100.00;101102.31;10447606;28;20120;-78
2022/08/18 22:57:35;;;;;;;36.25;29.75;;;;;;;15.21;100.00;101114.44;10414478;28;20374;-78
2022/08/18 23:02:35;;;;;;;49.63;34.25;;;;;;;15.24;100.00;101124.22;10446066;28;20374;-78
2022/08/18 23:07:36;;;;;;;37.75;31.50;;;;;;;15.15;100.00;101116.88;10446825;28;20068;-77
2022/08/18 23:12:36;;;;;;;42.00;33.15;;;;;;;15.15;100.00;101108.97;10429450;28;20119;-77
2022/08/18 23:17:39;;;;;;;47.53;39.30;;;;;;;15.09;100.00;101108.78;10429700;28;20036;-77
2022/08/18 23:22:39;;;;;;;47.88;39.25;;;;;;;15.08;100.00;101106.97;10445702;28;20036;-78
2022/08/18 23:27:41;;;;;;;46.42;36.05;;;;;;;15.10;100.00;101107.94;10428337;28;20045;-77
2022/08/18 23:32:42;;;;;;;61.05;43.67;;;;;;;15.01;100.00;101104.97;10446192;28;20029;-78
2022/08/18 23:37:42;;;;;;;57.75;43.58;;;;;;;15.02;100.00;101097.16;10428163;28;20104;-77